Sunday, April 21, 2019, 11:14 PM EDT
Back to Local

KRWI, Rocky Mount-wilson Airport

Location: Elm City, NC, United States Lat: 35.85
Local Time: 11:14 PM EDT ( 3:14 GMT) Lon: -77.9
Time Zone: US/Eastern Elev: 160 ft

Show me the last for .
Show Decoded

2019-04-21 22:53 METAR KRWI 220253Z AUTO 00000KT 10SM FEW070 OVC095 12/11 A3009 RMK AO2 RAE15
                 SLP189 P0000 60001 T01170111 51013 =
2019-04-21 21:53 METAR KRWI 220153Z AUTO 00000KT 8SM -RA BKN065 OVC080 12/11 A3009 RMK AO2
                 RAB01E17B51 SLP188 P0001 T01220111 =
2019-04-21 20:53 METAR KRWI 220053Z AUTO 00000KT 10SM SCT065 OVC095 12/11 A3008 RMK AO2 RAE02
                 SLP185 P0000 T01220111 =
2019-04-21 19:53 METAR KRWI 212353Z AUTO 24004KT 10SM -RA BKN070 OVC085 13/09 A3005 RMK AO2 RAB38
                 SLP178 P0000 60000 T01330094 10161 20133 51010 =
2019-04-21 18:53 METAR KRWI 212253Z AUTO 24005KT 10SM OVC075 14/09 A3004 RMK AO2 SLP174 T01390089
                 =
2019-04-21 17:53 METAR KRWI 212153Z AUTO VRB04KT 10SM OVC070 14/08 A3003 RMK AO2 SLP171 T01440078
                 =
2019-04-21 16:53 METAR KRWI 212053Z AUTO 26004KT 10SM FEW055 OVC070 16/08 A3002 RMK AO2 SLP167
                 T01560078 55004 =
2019-04-21 15:53 METAR KRWI 211953Z AUTO 33007KT 10SM FEW045 OVC060 16/07 A3002 RMK AO2 SLP165
                 T01560067 =
2019-04-21 14:53 METAR KRWI 211853Z AUTO 31004KT 10SM OVC060 16/07 A3003 RMK AO2 SLP168 T01560067
                 =
2019-04-21 13:53 METAR KRWI 211753Z AUTO 00000KT 10SM SCT037 BKN049 OVC070 16/07 A3003 RMK AO2
                 SLP170 T01560067 10167 20100 52001 =
2019-04-21 12:53 METAR KRWI 211653Z AUTO VRB05KT 10SM SCT055 BKN070 17/08 A3003 RMK AO2 SLP168
                 T01670078 =
2019-04-21 11:53 METAR KRWI 211553Z AUTO 32005KT 10SM FEW036 BKN055 17/07 A3004 RMK AO2 SLP171
                 T01670072 =
2019-04-21 10:53 METAR KRWI 211453Z AUTO VRB04KT 10SM BKN047 15/08 A3003 RMK AO2 SLP169 T01500083
                 51012 =
2019-04-21 10:15 METAR KRWI 211415Z AUTO 00000KT 10SM SCT022 13/08 A3003 RMK AO2 T01280078 =
2019-04-21 10:07 METAR KRWI 211407Z AUTO 20003KT 10SM BKN022 13/08 A3003 RMK AO2 T01330083 =
2019-04-21 09:53 METAR KRWI 211353Z AUTO 32003KT 10SM SCT020 13/08 A3002 RMK AO2 SLP166 T01280083
                 =
2019-04-21 08:53 METAR KRWI 211253Z AUTO 00000KT 10SM CLR 12/09 A3001 RMK AO2 SLP162 T01220089 =
2019-04-21 07:53 METAR KRWI 211153Z AUTO 23005KT 10SM CLR 10/08 A3000 RMK AO2 SLP158 T01000083
                 10106 20067 53019 =
2019-04-21 06:53 METAR KRWI 211053Z AUTO 00000KT 10SM CLR 07/07 A2998 RMK AO2 SLP152 T00670067 =
2019-04-21 05:53 METAR KRWI 210953Z AUTO 00000KT 10SM CLR 07/07 A2995 RMK AO2 SLP143 T00720072 =
2019-04-21 04:53 METAR KRWI 210853Z AUTO 00000KT 10SM CLR 08/07 A2994 RMK AO2 SLP138 T00780072
                 53007 =
2019-04-21 03:53 METAR KRWI 210753Z AUTO 20003KT 10SM CLR 08/07 A2993 RMK AO2 SLP134 T00830072 =
2019-04-21 02:53 METAR KRWI 210653Z AUTO 18003KT 10SM BKN030 09/08 A2992 RMK AO2 SLP131 T00940078
                 =
2019-04-21 01:53 METAR KRWI 210553Z AUTO 18003KT 10SM BKN033 11/08 A2992 RMK AO2 SLP130 60000
                 T01060078 10128 20100 51009 =
2019-04-21 00:53 METAR KRWI 210453Z AUTO 17005KT 10SM CLR 11/08 A2992 RMK AO2 SLP130 T01110083
                 401940106 =
2019-04-20 23:53 METAR KRWI 210353Z AUTO 18004KT 10SM BKN080 12/09 A2991 RMK AO2 SLP127 T01170089
                 =

Support USWX by starting your Amazon purchase here.